sensor_id;sensor_type;location;lat;lon;timestamp;P1;durP1;ratioP1;P2;durP2;ratioP2
3022;SDS011;1521;53.584;9.938;2023-02-12T00:01:32;14.37;;;6.50;;
3022;SDS011;1521;53.584;9.938;2023-02-12T00:03:58;15.50;;;6.20;;
3022;SDS011;1521;53.584;9.938;2023-02-12T00:06:25;13.90;;;6.10;;
3022;SDS011;1521;53.584;9.938;2023-02-12T00:08:51;19.83;;;6.53;;
3022;SDS011;1521;53.584;9.938;2023-02-12T00:11:18;18.63;;;6.73;;
3022;SDS011;1521;53.584;9.938;2023-02-12T00:13:47;17.17;;;6.20;;
3022;SDS011;1521;53.584;9.938;2023-02-12T00:16:14;14.83;;;6.27;;
3022;SDS011;1521;53.584;9.938;2023-02-12T00:18:41;16.77;;;6.47;;
3022;SDS011;1521;53.584;9.938;2023-02-12T00:21:07;15.10;;;6.70;;
3022;SDS011;1521;53.584;9.938;2023-02-12T00:23:33;13.17;;;6.20;;
3022;SDS011;1521;53.584;9.938;2023-02-12T00:25:59;13.63;;;5.60;;
3022;SDS011;1521;53.584;9.938;2023-02-12T00:28:28;18.00;;;6.23;;
3022;SDS011;1521;53.584;9.938;2023-02-12T00:30:54;13.10;;;5.13;;
3022;SDS011;1521;53.584;9.938;2023-02-12T00:33:19;12.33;;;5.10;;
3022;SDS011;1521;53.584;9.938;2023-02-12T00:35:49;15.77;;;5.40;;
3022;SDS011;1521;53.584;9.938;2023-02-12T00:38:22;20.97;;;5.67;;
3022;SDS011;1521;53.584;9.938;2023-02-12T00:40:47;13.33;;;5.00;;
3022;SDS011;1521;53.584;9.938;2023-02-12T00:43:13;12.20;;;5.30;;
3022;SDS011;1521;53.584;9.938;2023-02-12T00:45:38;14.57;;;5.57;;
3022;SDS011;1521;53.584;9.938;2023-02-12T00:48:04;13.70;;;5.03;;
3022;SDS011;1521;53.584;9.938;2023-02-12T00:50:30;13.83;;;6.07;;
3022;SDS011;1521;53.584;9.938;2023-02-12T00:52:55;10.47;;;5.03;;
3022;SDS011;1521;53.584;9.938;2023-02-12T00:55:21;13.97;;;4.80;;
3022;SDS011;1521;53.584;9.938;2023-02-12T00:57:46;11.70;;;4.90;;
3022;SDS011;1521;53.584;9.938;2023-02-12T01:00:12;9.47;;;4.60;;
3022;SDS011;1521;53.584;9.938;2023-02-12T01:02:39;13.00;;;5.40;;
3022;SDS011;1521;53.584;9.938;2023-02-12T01:05:04;13.07;;;4.60;;
3022;SDS011;1521;53.584;9.938;2023-02-12T01:07:30;7.70;;;4.10;;
3022;SDS011;1521;53.584;9.938;2023-02-12T01:09:56;10.50;;;3.73;;
3022;SDS011;1521;53.584;9.938;2023-02-12T01:12:21;10.37;;;4.00;;
3022;SDS011;1521;53.584;9.938;2023-02-12T01:14:47;8.10;;;3.27;;
3022;SDS011;1521;53.584;9.938;2023-02-12T01:17:12;8.73;;;3.10;;
3022;SDS011;1521;53.584;9.938;2023-02-12T01:19:38;7.73;;;3.80;;
3022;SDS011;1521;53.584;9.938;2023-02-12T01:22:04;10.23;;;3.40;;
3022;SDS011;1521;53.584;9.938;2023-02-12T01:24:29;13.00;;;4.33;;
3022;SDS011;1521;53.584;9.938;2023-02-12T01:26:55;8.43;;;4.37;;
3022;SDS011;1521;53.584;9.938;2023-02-12T01:29:23;10.30;;;4.20;;
3022;SDS011;1521;53.584;9.938;2023-02-12T01:31:49;15.70;;;5.00;;
3022;SDS011;1521;53.584;9.938;2023-02-12T01:34:15;15.73;;;4.30;;
3022;SDS011;1521;53.584;9.938;2023-02-12T01:36:40;13.73;;;5.23;;
3022;SDS011;1521;53.584;9.938;2023-02-12T01:39:06;15.57;;;5.03;;
3022;SDS011;1521;53.584;9.938;2023-02-12T01:41:35;14.60;;;5.40;;
3022;SDS011;1521;53.584;9.938;2023-02-12T01:44:10;13.00;;;5.30;;
3022;SDS011;1521;53.584;9.938;2023-02-12T01:46:45;14.73;;;5.20;;
3022;SDS011;1521;53.584;9.938;2023-02-12T01:49:27;13.10;;;5.17;;
3022;SDS011;1521;53.584;9.938;2023-02-12T01:52:02;16.43;;;6.10;;
3022;SDS011;1521;53.584;9.938;2023-02-12T01:54:32;18.27;;;5.80;;
3022;SDS011;1521;53.584;9.938;2023-02-12T01:56:59;16.23;;;5.77;;
3022;SDS011;1521;53.584;9.938;2023-02-12T01:59:27;14.80;;;5.97;;
3022;SDS011;1521;53.584;9.938;2023-02-12T02:01:53;21.03;;;6.80;;
3022;SDS011;1521;53.584;9.938;2023-02-12T02:04:20;18.17;;;6.47;;
3022;SDS011;1521;53.584;9.938;2023-02-12T02:06:51;18.70;;;6.87;;
3022;SDS011;1521;53.584;9.938;2023-02-12T02:09:27;19.33;;;7.67;;
3022;SDS011;1521;53.584;9.938;2023-02-12T02:11:56;14.73;;;6.07;;
3022;SDS011;1521;53.584;9.938;2023-02-12T02:14:41;18.53;;;8.40;;
3022;SDS011;1521;53.584;9.938;2023-02-12T02:33:38;21.17;;;7.47;;
3022;SDS011;1521;53.584;9.938;2023-02-12T02:36:13;21.40;;;7.27;;
3022;SDS011;1521;53.584;9.938;2023-02-12T02:39:06;17.20;;;6.80;;
3022;SDS011;1521;53.584;9.938;2023-02-12T02:41:47;23.73;;;7.90;;
3022;SDS011;1521;53.584;9.938;2023-02-12T02:44:21;21.73;;;7.33;;
3022;SDS011;1521;53.584;9.938;2023-02-12T02:46:52;19.50;;;7.13;;
3022;SDS011;1521;53.584;9.938;2023-02-12T02:49:31;23.13;;;9.63;;
3022;SDS011;1521;53.584;9.938;2023-02-12T02:52:04;19.27;;;7.73;;
3022;SDS011;1521;53.584;9.938;2023-02-12T02:54:35;21.23;;;7.40;;
3022;SDS011;1521;53.584;9.938;2023-02-12T02:57:07;20.20;;;7.03;;
3022;SDS011;1521;53.584;9.938;2023-02-12T02:59:40;22.37;;;7.67;;
3022;SDS011;1521;53.584;9.938;2023-02-12T03:02:12;22.13;;;7.77;;
3022;SDS011;1521;53.584;9.938;2023-02-12T03:04:50;20.90;;;6.30;;
3022;SDS011;1521;53.584;9.938;2023-02-12T03:07:20;22.50;;;7.23;;
3022;SDS011;1521;53.584;9.938;2023-02-12T03:10:00;23.83;;;8.87;;
3022;SDS011;1521;53.584;9.938;2023-02-12T03:12:34;20.90;;;6.80;;
3022;SDS011;1521;53.584;9.938;2023-02-12T03:15:07;19.80;;;6.30;;
3022;SDS011;1521;53.584;9.938;2023-02-12T03:17:38;15.57;;;6.43;;
3022;SDS011;1521;53.584;9.938;2023-02-12T03:20:18;20.17;;;6.70;;
3022;SDS011;1521;53.584;9.938;2023-02-12T03:22:55;17.73;;;6.47;;
3022;SDS011;1521;53.584;9.938;2023-02-12T03:25:33;15.63;;;6.00;;
3022;SDS011;1521;53.584;9.938;2023-02-12T03:33:19;12.27;;;4.80;;
3022;SDS011;1521;53.584;9.938;2023-02-12T03:36:26;16.97;;;4.90;;
3022;SDS011;1521;53.584;9.938;2023-02-12T03:39:02;12.07;;;4.83;;
3022;SDS011;1521;53.584;9.938;2023-02-12T03:42:20;12.40;;;4.30;;
3022;SDS011;1521;53.584;9.938;2023-02-12T03:47:11;13.73;;;4.33;;
3022;SDS011;1521;53.584;9.938;2023-02-12T03:49:45;17.53;;;4.77;;
3022;SDS011;1521;53.584;9.938;2023-02-12T03:52:21;13.07;;;3.87;;
3022;SDS011;1521;53.584;9.938;2023-02-12T03:54:47;15.23;;;4.73;;
3022;SDS011;1521;53.584;9.938;2023-02-12T03:57:14;15.87;;;5.20;;
3022;SDS011;1521;53.584;9.938;2023-02-12T03:59:44;22.83;;;4.47;;
3022;SDS011;1521;53.584;9.938;2023-02-12T04:02:10;17.53;;;5.67;;
3022;SDS011;1521;53.584;9.938;2023-02-12T04:04:37;13.83;;;4.80;;
3022;SDS011;1521;53.584;9.938;2023-02-12T04:07:03;8.23;;;4.00;;
3022;SDS011;1521;53.584;9.938;2023-02-12T04:09:29;10.73;;;4.10;;
3022;SDS011;1521;53.584;9.938;2023-02-12T04:20:04;22.93;;;4.07;;
3022;SDS011;1521;53.584;9.938;2023-02-12T04:25:19;16.37;;;4.80;;
3022;SDS011;1521;53.584;9.938;2023-02-12T04:27:59;43.13;;;5.43;;
3022;SDS011;1521;53.584;9.938;2023-02-12T04:30:44;35.87;;;5.00;;
3022;SDS011;1521;53.584;9.938;2023-02-12T04:33:28;19.73;;;5.30;;
3022;SDS011;1521;53.584;9.938;2023-02-12T04:36:05;16.50;;;4.50;;
3022;SDS011;1521;53.584;9.938;2023-02-12T04:38:39;48.17;;;5.20;;
3022;SDS011;1521;53.584;9.938;2023-02-12T04:41:12;18.40;;;5.30;;
3022;SDS011;1521;53.584;9.938;2023-02-12T04:43:38;20.90;;;6.57;;
3022;SDS011;1521;53.584;9.938;2023-02-12T04:46:05;63.77;;;7.33;;
3022;SDS011;1521;53.584;9.938;2023-02-12T04:48:31;29.50;;;6.90;;
3022;SDS011;1521;53.584;9.938;2023-02-12T04:50:58;19.43;;;6.10;;
3022;SDS011;1521;53.584;9.938;2023-02-12T04:53:24;35.90;;;8.67;;
3022;SDS011;1521;53.584;9.938;2023-02-12T04:55:50;36.53;;;8.30;;
3022;SDS011;1521;53.584;9.938;2023-02-12T04:58:16;53.20;;;10.60;;
3022;SDS011;1521;53.584;9.938;2023-02-12T05:00:42;35.20;;;9.33;;
3022;SDS011;1521;53.584;9.938;2023-02-12T05:03:08;97.63;;;11.90;;
3022;SDS011;1521;53.584;9.938;2023-02-12T05:05:33;43.20;;;9.80;;
3022;SDS011;1521;53.584;9.938;2023-02-12T05:07:59;96.17;;;13.50;;
3022;SDS011;1521;53.584;9.938;2023-02-12T05:10:25;69.17;;;13.87;;
3022;SDS011;1521;53.584;9.938;2023-02-12T05:12:51;101.67;;;15.43;;
3022;SDS011;1521;53.584;9.938;2023-02-12T05:15:17;102.10;;;14.23;;
3022;SDS011;1521;53.584;9.938;2023-02-12T05:17:43;66.07;;;14.43;;
3022;SDS011;1521;53.584;9.938;2023-02-12T05:20:09;89.97;;;15.10;;
3022;SDS011;1521;53.584;9.938;2023-02-12T05:22:36;91.23;;;15.33;;
3022;SDS011;1521;53.584;9.938;2023-02-12T05:25:02;134.73;;;15.73;;
3022;SDS011;1521;53.584;9.938;2023-02-12T05:27:28;189.20;;;17.33;;
3022;SDS011;1521;53.584;9.938;2023-02-12T05:29:53;63.63;;;14.10;;
3022;SDS011;1521;53.584;9.938;2023-02-12T05:32:20;56.07;;;12.73;;
3022;SDS011;1521;53.584;9.938;2023-02-12T05:34:47;74.13;;;14.03;;
3022;SDS011;1521;53.584;9.938;2023-02-12T05:37:12;54.50;;;13.20;;
3022;SDS011;1521;53.584;9.938;2023-02-12T05:39:38;54.80;;;12.93;;
3022;SDS011;1521;53.584;9.938;2023-02-12T05:42:04;84.63;;;14.53;;
3022;SDS011;1521;53.584;9.938;2023-02-12T05:44:29;62.27;;;13.27;;
3022;SDS011;1521;53.584;9.938;2023-02-12T05:46:55;94.90;;;13.80;;
3022;SDS011;1521;53.584;9.938;2023-02-12T05:49:20;74.30;;;15.70;;
3022;SDS011;1521;53.584;9.938;2023-02-12T05:51:46;65.70;;;14.03;;
3022;SDS011;1521;53.584;9.938;2023-02-12T05:54:12;94.10;;;13.10;;
3022;SDS011;1521;53.584;9.938;2023-02-12T05:56:41;81.47;;;14.17;;
3022;SDS011;1521;53.584;9.938;2023-02-12T05:59:14;62.47;;;13.33;;
3022;SDS011;1521;53.584;9.938;2023-02-12T06:01:43;78.33;;;14.30;;
3022;SDS011;1521;53.584;9.938;2023-02-12T06:04:12;49.47;;;11.67;;
3022;SDS011;1521;53.584;9.938;2023-02-12T06:06:40;65.03;;;14.00;;
3022;SDS011;1521;53.584;9.938;2023-02-12T06:09:06;64.83;;;14.47;;
3022;SDS011;1521;53.584;9.938;2023-02-12T06:11:33;49.27;;;12.30;;
3022;SDS011;1521;53.584;9.938;2023-02-12T06:14:01;66.47;;;15.40;;
3022;SDS011;1521;53.584;9.938;2023-02-12T06:16:28;74.63;;;13.53;;
3022;SDS011;1521;53.584;9.938;2023-02-12T06:18:54;65.17;;;14.27;;
3022;SDS011;1521;53.584;9.938;2023-02-12T06:21:23;67.47;;;14.90;;
3022;SDS011;1521;53.584;9.938;2023-02-12T06:23:50;83.37;;;14.20;;
3022;SDS011;1521;53.584;9.938;2023-02-12T06:26:16;70.53;;;13.80;;
3022;SDS011;1521;53.584;9.938;2023-02-12T06:28:43;161.17;;;16.97;;
3022;SDS011;1521;53.584;9.938;2023-02-12T06:31:16;77.20;;;14.00;;
3022;SDS011;1521;53.584;9.938;2023-02-12T06:33:53;126.57;;;16.43;;
3022;SDS011;1521;53.584;9.938;2023-02-12T06:36:19;75.03;;;13.90;;
3022;SDS011;1521;53.584;9.938;2023-02-12T06:38:45;89.23;;;13.60;;
3022;SDS011;1521;53.584;9.938;2023-02-12T06:41:11;82.87;;;13.50;;
3022;SDS011;1521;53.584;9.938;2023-02-12T06:43:37;60.33;;;11.77;;
3022;SDS011;1521;53.584;9.938;2023-02-12T06:46:03;60.37;;;11.60;;
3022;SDS011;1521;53.584;9.938;2023-02-12T06:48:29;48.13;;;12.57;;
3022;SDS011;1521;53.584;9.938;2023-02-12T06:50:55;84.93;;;12.80;;
3022;SDS011;1521;53.584;9.938;2023-02-12T06:53:21;62.13;;;13.10;;
3022;SDS011;1521;53.584;9.938;2023-02-12T06:55:47;43.43;;;11.90;;
3022;SDS011;1521;53.584;9.938;2023-02-12T06:58:12;66.23;;;15.30;;
3022;SDS011;1521;53.584;9.938;2023-02-12T07:00:38;56.27;;;12.73;;
3022;SDS011;1521;53.584;9.938;2023-02-12T07:03:03;89.40;;;14.13;;
3022;SDS011;1521;53.584;9.938;2023-02-12T07:05:29;92.87;;;14.77;;
3022;SDS011;1521;53.584;9.938;2023-02-12T07:07:54;68.10;;;13.80;;
3022;SDS011;1521;53.584;9.938;2023-02-12T07:10:20;58.27;;;13.30;;
3022;SDS011;1521;53.584;9.938;2023-02-12T07:12:45;76.37;;;13.70;;
3022;SDS011;1521;53.584;9.938;2023-02-12T07:15:11;101.23;;;15.53;;
3022;SDS011;1521;53.584;9.938;2023-02-12T07:17:37;95.87;;;14.37;;
3022;SDS011;1521;53.584;9.938;2023-02-12T07:20:03;163.47;;;17.50;;
3022;SDS011;1521;53.584;9.938;2023-02-12T07:22:30;103.13;;;16.50;;
3022;SDS011;1521;53.584;9.938;2023-02-12T07:24:55;185.27;;;17.27;;
3022;SDS011;1521;53.584;9.938;2023-02-12T07:27:21;90.50;;;15.33;;
3022;SDS011;1521;53.584;9.938;2023-02-12T07:29:46;88.80;;;16.00;;
3022;SDS011;1521;53.584;9.938;2023-02-12T07:32:12;152.13;;;18.13;;
3022;SDS011;1521;53.584;9.938;2023-02-12T07:34:37;109.87;;;16.67;;
3022;SDS011;1521;53.584;9.938;2023-02-12T07:37:03;97.53;;;17.47;;
3022;SDS011;1521;53.584;9.938;2023-02-12T07:39:30;79.77;;;17.13;;
3022;SDS011;1521;53.584;9.938;2023-02-12T07:41:56;131.17;;;17.33;;
3022;SDS011;1521;53.584;9.938;2023-02-12T07:44:22;200.97;;;19.53;;
3022;SDS011;1521;53.584;9.938;2023-02-12T07:46:48;157.67;;;19.37;;
3022;SDS011;1521;53.584;9.938;2023-02-12T07:49:18;150.73;;;19.80;;
3022;SDS011;1521;53.584;9.938;2023-02-12T07:51:45;154.33;;;18.30;;
3022;SDS011;1521;53.584;9.938;2023-02-12T07:54:12;102.90;;;19.00;;
3022;SDS011;1521;53.584;9.938;2023-02-12T07:56:39;103.17;;;18.77;;
3022;SDS011;1521;53.584;9.938;2023-02-12T07:59:07;197.70;;;19.33;;
3022;SDS011;1521;53.584;9.938;2023-02-12T08:01:38;170.03;;;19.93;;
3022;SDS011;1521;53.584;9.938;2023-02-12T08:04:06;88.47;;;19.10;;
3022;SDS011;1521;53.584;9.938;2023-02-12T08:06:38;101.73;;;17.17;;
3022;SDS011;1521;53.584;9.938;2023-02-12T08:09:06;119.00;;;18.93;;
3022;SDS011;1521;53.584;9.938;2023-02-12T08:11:34;119.50;;;20.07;;
3022;SDS011;1521;53.584;9.938;2023-02-12T08:14:01;82.10;;;18.83;;
3022;SDS011;1521;53.584;9.938;2023-02-12T08:16:27;93.50;;;19.40;;
3022;SDS011;1521;53.584;9.938;2023-02-12T08:18:54;78.40;;;18.40;;
3022;SDS011;1521;53.584;9.938;2023-02-12T08:21:24;100.10;;;19.07;;
3022;SDS011;1521;53.584;9.938;2023-02-12T08:23:54;78.53;;;18.10;;
3022;SDS011;1521;53.584;9.938;2023-02-12T08:26:25;84.43;;;18.10;;
3022;SDS011;1521;53.584;9.938;2023-02-12T08:28:53;73.67;;;18.10;;
3022;SDS011;1521;53.584;9.938;2023-02-12T08:31:26;64.80;;;16.53;;
3022;SDS011;1521;53.584;9.938;2023-02-12T08:33:56;65.70;;;18.10;;
3022;SDS011;1521;53.584;9.938;2023-02-12T08:36:23;63.60;;;17.00;;
3022;SDS011;1521;53.584;9.938;2023-02-12T08:38:51;68.87;;;17.47;;
3022;SDS011;1521;53.584;9.938;2023-02-12T08:41:23;56.53;;;16.67;;
3022;SDS011;1521;53.584;9.938;2023-02-12T08:43:53;60.40;;;15.77;;
3022;SDS011;1521;53.584;9.938;2023-02-12T08:46:21;56.43;;;14.83;;
3022;SDS011;1521;53.584;9.938;2023-02-12T08:48:50;57.77;;;16.47;;
3022;SDS011;1521;53.584;9.938;2023-02-12T08:51:18;62.33;;;17.93;;
3022;SDS011;1521;53.584;9.938;2023-02-12T08:53:46;62.00;;;16.50;;
3022;SDS011;1521;53.584;9.938;2023-02-12T08:56:14;60.90;;;17.80;;
3022;SDS011;1521;53.584;9.938;2023-02-12T08:58:41;77.60;;;19.40;;
3022;SDS011;1521;53.584;9.938;2023-02-12T09:01:12;65.03;;;17.77;;
3022;SDS011;1521;53.584;9.938;2023-02-12T09:03:43;66.63;;;19.23;;
3022;SDS011;1521;53.584;9.938;2023-02-12T09:06:09;60.30;;;17.90;;
3022;SDS011;1521;53.584;9.938;2023-02-12T09:08:36;64.23;;;17.93;;
3022;SDS011;1521;53.584;9.938;2023-02-12T09:11:03;57.00;;;17.37;;
3022;SDS011;1521;53.584;9.938;2023-02-12T09:13:33;51.07;;;16.10;;
3022;SDS011;1521;53.584;9.938;2023-02-12T09:16:01;54.30;;;17.00;;
3022;SDS011;1521;53.584;9.938;2023-02-12T09:18:27;51.40;;;17.13;;
3022;SDS011;1521;53.584;9.938;2023-02-12T09:20:54;60.27;;;17.93;;
3022;SDS011;1521;53.584;9.938;2023-02-12T09:23:20;65.70;;;19.20;;
3022;SDS011;1521;53.584;9.938;2023-02-12T09:25:45;59.60;;;17.43;;
3022;SDS011;1521;53.584;9.938;2023-02-12T09:28:12;58.20;;;18.83;;
3022;SDS011;1521;53.584;9.938;2023-02-12T09:30:39;66.73;;;19.30;;
3022;SDS011;1521;53.584;9.938;2023-02-12T09:33:05;60.17;;;17.87;;
3022;SDS011;1521;53.584;9.938;2023-02-12T09:35:35;49.87;;;17.87;;
3022;SDS011;1521;53.584;9.938;2023-02-12T09:38:02;53.30;;;17.80;;
3022;SDS011;1521;53.584;9.938;2023-02-12T09:43:13;50.63;;;16.20;;
3022;SDS011;1521;53.584;9.938;2023-02-12T09:51:33;58.67;;;19.00;;
3022;SDS011;1521;53.584;9.938;2023-02-12T09:54:02;63.10;;;19.53;;
3022;SDS011;1521;53.584;9.938;2023-02-12T09:56:32;66.93;;;19.77;;
3022;SDS011;1521;53.584;9.938;2023-02-12T09:59:03;67.37;;;19.87;;
3022;SDS011;1521;53.584;9.938;2023-02-12T10:01:31;63.77;;;18.73;;
3022;SDS011;1521;53.584;9.938;2023-02-12T10:03:57;59.47;;;21.10;;
3022;SDS011;1521;53.584;9.938;2023-02-12T10:06:25;57.03;;;18.47;;
3022;SDS011;1521;53.584;9.938;2023-02-12T10:22:33;56.40;;;17.53;;
3022;SDS011;1521;53.584;9.938;2023-02-12T10:25:18;53.80;;;18.30;;
3022;SDS011;1521;53.584;9.938;2023-02-12T10:27:52;54.60;;;18.83;;
3022;SDS011;1521;53.584;9.938;2023-02-12T10:30:22;47.47;;;18.17;;
3022;SDS011;1521;53.584;9.938;2023-02-12T10:32:52;48.30;;;18.60;;
3022;SDS011;1521;53.584;9.938;2023-02-12T10:35:24;56.40;;;19.20;;
3022;SDS011;1521;53.584;9.938;2023-02-12T10:37:57;48.33;;;18.87;;
3022;SDS011;1521;53.584;9.938;2023-02-12T10:40:30;55.13;;;19.37;;
3022;SDS011;1521;53.584;9.938;2023-02-12T10:42:58;59.50;;;18.37;;
3022;SDS011;1521;53.584;9.938;2023-02-12T10:48:06;50.23;;;18.40;;
3022;SDS011;1521;53.584;9.938;2023-02-12T10:51:03;46.13;;;17.17;;
3022;SDS011;1521;53.584;9.938;2023-02-12T10:53:37;61.97;;;17.20;;
3022;SDS011;1521;53.584;9.938;2023-02-12T10:56:11;49.33;;;17.53;;
3022;SDS011;1521;53.584;9.938;2023-02-12T11:01:19;50.13;;;18.07;;
3022;SDS011;1521;53.584;9.938;2023-02-12T11:04:18;46.87;;;15.40;;
3022;SDS011;1521;53.584;9.938;2023-02-12T11:07:02;43.90;;;17.80;;
3022;SDS011;1521;53.584;9.938;2023-02-12T11:12:16;40.73;;;15.83;;
3022;SDS011;1521;53.584;9.938;2023-02-12T11:15:12;41.53;;;16.70;;
3022;SDS011;1521;53.584;9.938;2023-02-12T11:17:45;40.13;;;15.43;;
3022;SDS011;1521;53.584;9.938;2023-02-12T11:20:27;42.20;;;15.50;;
3022;SDS011;1521;53.584;9.938;2023-02-12T11:22:57;39.40;;;15.27;;
3022;SDS011;1521;53.584;9.938;2023-02-12T11:25:26;36.50;;;15.40;;
3022;SDS011;1521;53.584;9.938;2023-02-12T11:30:30;41.30;;;15.33;;
3022;SDS011;1521;53.584;9.938;2023-02-12T11:38:46;45.53;;;16.30;;
3022;SDS011;1521;53.584;9.938;2023-02-12T11:43:50;39.27;;;16.70;;
3022;SDS011;1521;53.584;9.938;2023-02-12T11:46:20;41.77;;;16.20;;
3022;SDS011;1521;53.584;9.938;2023-02-12T11:48:48;44.20;;;15.50;;
3022;SDS011;1521;53.584;9.938;2023-02-12T11:51:25;36.60;;;14.60;;
3022;SDS011;1521;53.584;9.938;2023-02-12T11:53:54;40.07;;;15.57;;
3022;SDS011;1521;53.584;9.938;2023-02-12T11:56:22;44.43;;;15.00;;
3022;SDS011;1521;53.584;9.938;2023-02-12T11:58:48;39.67;;;14.83;;
3022;SDS011;1521;53.584;9.938;2023-02-12T12:01:20;36.07;;;13.70;;
3022;SDS011;1521;53.584;9.938;2023-02-12T12:06:40;33.10;;;13.90;;
3022;SDS011;1521;53.584;9.938;2023-02-12T12:14:25;38.13;;;12.73;;
3022;SDS011;1521;53.584;9.938;2023-02-12T12:17:02;34.37;;;12.30;;
3022;SDS011;1521;53.584;9.938;2023-02-12T12:25:41;26.20;;;11.97;;
3022;SDS011;1521;53.584;9.938;2023-02-12T12:33:39;24.20;;;12.23;;
3022;SDS011;1521;53.584;9.938;2023-02-12T12:47:29;33.23;;;13.13;;
3022;SDS011;1521;53.584;9.938;2023-02-12T12:50:17;29.20;;;12.40;;
3022;SDS011;1521;53.584;9.938;2023-02-12T12:53:18;24.87;;;10.90;;
3022;SDS011;1521;53.584;9.938;2023-02-12T12:56:40;22.73;;;10.23;;
3022;SDS011;1521;53.584;9.938;2023-02-12T13:13:49;14.87;;;8.00;;
3022;SDS011;1521;53.584;9.938;2023-02-12T13:19:18;13.50;;;7.20;;
3022;SDS011;1521;53.584;9.938;2023-02-12T13:22:10;10.43;;;5.70;;
3022;SDS011;1521;53.584;9.938;2023-02-12T13:24:54;12.93;;;6.53;;
3022;SDS011;1521;53.584;9.938;2023-02-12T13:27:34;12.27;;;7.13;;
3022;SDS011;1521;53.584;9.938;2023-02-12T13:30:06;14.90;;;6.60;;
3022;SDS011;1521;53.584;9.938;2023-02-12T13:35:57;8.87;;;5.33;;
3022;SDS011;1521;53.584;9.938;2023-02-12T13:38:27;11.93;;;5.93;;
3022;SDS011;1521;53.584;9.938;2023-02-12T13:41:01;9.67;;;4.60;;
3022;SDS011;1521;53.584;9.938;2023-02-12T13:43:35;8.07;;;4.63;;
3022;SDS011;1521;53.584;9.938;2023-02-12T13:46:28;8.90;;;5.37;;
3022;SDS011;1521;53.584;9.938;2023-02-12T13:52:11;10.77;;;5.57;;
3022;SDS011;1521;53.584;9.938;2023-02-12T13:54:48;10.50;;;5.73;;
3022;SDS011;1521;53.584;9.938;2023-02-12T13:57:22;9.10;;;5.77;;
3022;SDS011;1521;53.584;9.938;2023-02-12T13:59:54;9.67;;;5.50;;
3022;SDS011;1521;53.584;9.938;2023-02-12T14:02:26;10.73;;;6.00;;
3022;SDS011;1521;53.584;9.938;2023-02-12T14:04:55;11.40;;;6.33;;
3022;SDS011;1521;53.584;9.938;2023-02-12T14:07:40;10.30;;;6.50;;
3022;SDS011;1521;53.584;9.938;2023-02-12T14:10:18;13.23;;;7.27;;
3022;SDS011;1521;53.584;9.938;2023-02-12T14:12:44;14.97;;;8.23;;
3022;SDS011;1521;53.584;9.938;2023-02-12T14:21:32;14.23;;;7.67;;
3022;SDS011;1521;53.584;9.938;2023-02-12T14:23:44;15.33;;;8.60;;
3022;SDS011;1521;53.584;9.938;2023-02-12T14:26:16;17.70;;;8.60;;
3022;SDS011;1521;53.584;9.938;2023-02-12T14:29:03;19.93;;;9.50;;
3022;SDS011;1521;53.584;9.938;2023-02-12T14:31:41;23.60;;;10.13;;
3022;SDS011;1521;53.584;9.938;2023-02-12T14:39:03;23.27;;;10.10;;
3022;SDS011;1521;53.584;9.938;2023-02-12T14:41:48;21.20;;;9.97;;
3022;SDS011;1521;53.584;9.938;2023-02-12T14:47:02;23.60;;;10.87;;
3022;SDS011;1521;53.584;9.938;2023-02-12T14:49:47;22.30;;;10.20;;
3022;SDS011;1521;53.584;9.938;2023-02-12T14:52:17;22.80;;;10.70;;
3022;SDS011;1521;53.584;9.938;2023-02-12T14:54:56;25.07;;;10.63;;
3022;SDS011;1521;53.584;9.938;2023-02-12T14:57:28;17.80;;;8.43;;
3022;SDS011;1521;53.584;9.938;2023-02-12T15:00:01;15.40;;;9.27;;
3022;SDS011;1521;53.584;9.938;2023-02-12T15:02:43;18.23;;;7.73;;
3022;SDS011;1521;53.584;9.938;2023-02-12T15:05:31;18.23;;;8.07;;
3022;SDS011;1521;53.584;9.938;2023-02-12T15:08:03;16.17;;;7.77;;
3022;SDS011;1521;53.584;9.938;2023-02-12T15:10:54;15.17;;;7.63;;
3022;SDS011;1521;53.584;9.938;2023-02-12T15:19:14;18.80;;;7.40;;
3022;SDS011;1521;53.584;9.938;2023-02-12T15:22:00;14.63;;;7.80;;
3022;SDS011;1521;53.584;9.938;2023-02-12T15:24:26;15.13;;;7.63;;
3022;SDS011;1521;53.584;9.938;2023-02-12T15:26:53;16.40;;;7.83;;
3022;SDS011;1521;53.584;9.938;2023-02-12T15:29:26;13.77;;;6.80;;
3022;SDS011;1521;53.584;9.938;2023-02-12T15:31:57;15.10;;;7.63;;
3022;SDS011;1521;53.584;9.938;2023-02-12T15:34:27;13.03;;;7.57;;
3022;SDS011;1521;53.584;9.938;2023-02-12T15:36:56;14.73;;;7.47;;
3022;SDS011;1521;53.584;9.938;2023-02-12T15:39:24;13.50;;;8.27;;
3022;SDS011;1521;53.584;9.938;2023-02-12T15:41:51;13.50;;;8.03;;
3022;SDS011;1521;53.584;9.938;2023-02-12T15:44:25;15.20;;;6.80;;
3022;SDS011;1521;53.584;9.938;2023-02-12T15:46:53;12.40;;;7.17;;
3022;SDS011;1521;53.584;9.938;2023-02-12T15:49:32;10.93;;;6.90;;
3022;SDS011;1521;53.584;9.938;2023-02-12T15:52:00;9.60;;;6.57;;
3022;SDS011;1521;53.584;9.938;2023-02-12T15:54:31;10.97;;;5.87;;
3022;SDS011;1521;53.584;9.938;2023-02-12T15:56:56;8.77;;;5.70;;
3022;SDS011;1521;53.584;9.938;2023-02-12T15:59:23;8.50;;;5.30;;
3022;SDS011;1521;53.584;9.938;2023-02-12T16:01:51;8.70;;;5.00;;
3022;SDS011;1521;53.584;9.938;2023-02-12T16:04:30;7.87;;;5.27;;
3022;SDS011;1521;53.584;9.938;2023-02-12T16:07:01;9.70;;;5.33;;
3022;SDS011;1521;53.584;9.938;2023-02-12T16:09:31;8.87;;;5.43;;
3022;SDS011;1521;53.584;9.938;2023-02-12T16:11:59;9.20;;;5.17;;
3022;SDS011;1521;53.584;9.938;2023-02-12T16:14:38;6.63;;;5.20;;
3022;SDS011;1521;53.584;9.938;2023-02-12T16:17:20;7.00;;;4.70;;
3022;SDS011;1521;53.584;9.938;2023-02-12T16:20:00;8.63;;;6.10;;
3022;SDS011;1521;53.584;9.938;2023-02-12T16:22:37;6.53;;;4.30;;
3022;SDS011;1521;53.584;9.938;2023-02-12T16:25:12;9.47;;;4.97;;
3022;SDS011;1521;53.584;9.938;2023-02-12T16:27:52;6.17;;;4.70;;
3022;SDS011;1521;53.584;9.938;2023-02-12T16:30:47;9.50;;;5.37;;
3022;SDS011;1521;53.584;9.938;2023-02-12T16:36:14;6.97;;;5.40;;
3022;SDS011;1521;53.584;9.938;2023-02-12T16:38:43;8.33;;;5.13;;
3022;SDS011;1521;53.584;9.938;2023-02-12T16:43:43;7.23;;;5.20;;
3022;SDS011;1521;53.584;9.938;2023-02-12T16:46:09;9.27;;;5.63;;
3022;SDS011;1521;53.584;9.938;2023-02-12T16:48:44;8.60;;;5.57;;
3022;SDS011;1521;53.584;9.938;2023-02-12T16:51:25;9.70;;;6.37;;
3022;SDS011;1521;53.584;9.938;2023-02-12T16:53:51;8.27;;;6.00;;
3022;SDS011;1521;53.584;9.938;2023-02-12T16:56:22;12.63;;;6.10;;
3022;SDS011;1521;53.584;9.938;2023-02-12T16:58:53;9.50;;;6.07;;
3022;SDS011;1521;53.584;9.938;2023-02-12T17:01:29;10.60;;;7.30;;
3022;SDS011;1521;53.584;9.938;2023-02-12T17:03:57;8.33;;;5.30;;
3022;SDS011;1521;53.584;9.938;2023-02-12T17:06:28;9.40;;;6.33;;
3022;SDS011;1521;53.584;9.938;2023-02-12T17:08:56;10.33;;;5.83;;
3022;SDS011;1521;53.584;9.938;2023-02-12T17:11:22;9.77;;;6.17;;
3022;SDS011;1521;53.584;9.938;2023-02-12T17:13:51;10.77;;;6.90;;
3022;SDS011;1521;53.584;9.938;2023-02-12T17:16:19;9.67;;;6.43;;
3022;SDS011;1521;53.584;9.938;2023-02-12T17:18:45;9.30;;;6.47;;
3022;SDS011;1521;53.584;9.938;2023-02-12T17:21:17;10.90;;;6.50;;
3022;SDS011;1521;53.584;9.938;2023-02-12T17:23:49;11.30;;;6.40;;
3022;SDS011;1521;53.584;9.938;2023-02-12T17:26:15;11.73;;;6.43;;
3022;SDS011;1521;53.584;9.938;2023-02-12T17:28:40;10.77;;;7.10;;
3022;SDS011;1521;53.584;9.938;2023-02-12T17:31:07;12.73;;;7.20;;
3022;SDS011;1521;53.584;9.938;2023-02-12T17:33:33;15.60;;;8.10;;
3022;SDS011;1521;53.584;9.938;2023-02-12T17:35:59;12.20;;;7.30;;
3022;SDS011;1521;53.584;9.938;2023-02-12T17:38:25;13.50;;;7.40;;
3022;SDS011;1521;53.584;9.938;2023-02-12T17:40:50;11.33;;;7.40;;
3022;SDS011;1521;53.584;9.938;2023-02-12T17:43:17;12.20;;;7.37;;
3022;SDS011;1521;53.584;9.938;2023-02-12T17:45:43;14.10;;;7.37;;
3022;SDS011;1521;53.584;9.938;2023-02-12T17:48:09;15.77;;;8.20;;
3022;SDS011;1521;53.584;9.938;2023-02-12T17:50:37;13.57;;;8.43;;
3022;SDS011;1521;53.584;9.938;2023-02-12T17:53:03;14.63;;;7.60;;